North Amity, Maine
Current Conditions -  °F | °C
As of 3:53 PM on Friday 19 Dec 2014 (Local Time) from KHUL Reporting Station
Clear Clear  
Wind Chill: 18°   Ceiling: Unl
Heat Index: 26°   Visibility: 10mi
Dew Point: 18°   Wind: 7mph
Humidity: 71%   Direction: 350°N
Pressure: 29.9"   Gusts: NA
Location:  45.8952°N, 67.8479°W
Report Text: KHUL 192053Z AUTO 35006KT 10SM CLR M03/M08 A2990 RMK AO2 SLP132 T10331078 53023
Loading
Personal Weather Stations






























Interactive Weather Map New forecast layout! Learn more

10-Day Weather Forecast

Advertisements
Track Severe Weather on mobile